• Join FlightAware (Why Join?)
  • Login
  • US Flag 
06:06AM EDT


 

Airport Tracker/Info


-or-


 

Live Flight TrackerFlight Track Log ✈ KAP927 ✈ 20-Jun-2013 ✈ KALB - KBOS

Flight Track Log - Related Links

Times and Time Zones

All times are in EDT time to prevent confusion due to time zone crossing. See the KAP927 flight status page for this flight to view local times or setup timezone preferences in your user account.

Time Position Orientation Groundspeed Altitude Reporting Facility
EDT Latitude Longitude Course Direction KTS MPH feet Rate Location/Type
07:57AM 41.8039 -73.8519 21° North 144 166 4,400  Level Boston Center
07:59AM 41.8183 -73.7836 74° East  Level Estimated
08:06AM 41.8887 -73.4456 74° East  Level Estimated
08:07AM 41.8986 -73.3972 74° East  Level Estimated
08:08AM 41.9086 -73.3489 75° East  Level Estimated
08:09AM 41.9185 -73.3005 75° East  Level Estimated
08:10AM 41.9284 -73.2521 75° East  Level Estimated
08:11AM 41.9383 -73.2037 75° East  Level Estimated
08:12AM 41.9482 -73.1552 75° East  Level Estimated
08:13AM 41.9580 -73.1068 75° East  Level Estimated
08:14AM 41.9679 -73.0583 75° East  Level Estimated
08:15AM 41.9777 -73.0099 75° East  Level Estimated
08:16AM 41.9875 -72.9614 75° East  Level Estimated
08:17AM 41.9972 -72.9129 75° East  Level Estimated
08:18AM 42.0070 -72.8644 75° East  Level Estimated
08:19AM 42.0167 -72.8158 75° East  Level Estimated
08:20AM 42.0264 -72.7673 75° East  Level Estimated
08:21AM 42.0361 -72.7187 75° East  Level Estimated
08:22AM 42.0458 -72.6701 75° East  Level Estimated
08:23AM 42.0555 -72.6216 75° East  Level Estimated
08:24AM 42.0651 -72.5730 75° East  Level Estimated
08:25AM 42.0747 -72.5243 75° East  Level Estimated
08:26AM 42.0843 -72.4757 75° East  Level Estimated
08:27AM 42.0938 -72.4270 75° East  Level Estimated
08:28AM 42.1034 -72.3784 75° East  Level Estimated
08:29AM 42.1129 -72.3297 75° East  Level Estimated
08:30AM 42.1224 -72.2810 75° East  Level Estimated
08:31AM 42.1319 -72.2323 75° East  Level Estimated
08:32AM 42.1414 -72.1836 75° East  Level Estimated
08:33AM 42.1508 -72.1348 75° East  Level Estimated
08:34AM 42.1603 -72.0861 75° East  Level Estimated
08:35AM 42.1697 -72.0373 75° East  Level Estimated
08:36AM 42.1790 -71.9885 75° East  Level Estimated
08:37AM 42.1884 -71.9398 75° East  Level Estimated
08:38AM 42.1977 -71.8910 75° East  Level Estimated
08:39AM 42.2071 -71.8421 76° East  Level Estimated
08:40AM 42.2164 -71.7933 76° East  Level Estimated
08:41AM 42.2256 -71.7444 76° East  Level Estimated
08:42AM 42.2349 -71.6956 76° East  Level Estimated
08:43AM 42.2441 -71.6467 76° East  Level Estimated
08:44AM 42.2533 -71.5978 76° East  Level Estimated
08:45AM 42.2626 -71.5489 76° East  Level Estimated
08:45AM 42.7050 -73.3808 76° East 146 168 5,500  Level Boston Center
08:46AM 42.2717 -71.5000 76° East  Level Estimated
08:46AM 42.6969 -73.3300 102° East 148 170 6,000  Level Boston Center
08:47AM 42.2809 -71.4510 76° East  Level Estimated
08:47AM 42.6892 -73.2733 101° East 150 173 6,600  Level Boston Center
08:48AM 42.2900 -71.4021 76° East  Level Estimated
08:48AM 42.6811 -73.2111 100° East 149 171 7,100  Level Boston Center
08:49AM 42.2991 -71.3531 76° East  Level Estimated
08:49AM 42.6753 -73.1603 99° East 154 177 7,500  Level Boston Center
08:50AM 42.3082 -71.3041 76° East  Level Estimated
08:50AM 42.6633 -73.0894 103° East 161 185 7,500  Level Boston Center
08:51AM 42.6572 -73.0272 98° East 176 203 7,500  Level Boston Center
08:52AM 42.6494 -72.9594 99° East 181 208 7,500  Level Boston Center
08:53AM 42.6392 -72.8861 101° East 181 208 7,500  Level Boston Center
08:54AM 42.6289 -72.8183 102° East 181 208 7,500  Level Boston Center
08:55AM 42.6208 -72.7561 100° East 181 208 7,500  Level Boston Center
08:56AM 42.6128 -72.6911 100° East 176 203 7,500  Level Boston Center
08:57AM 42.6025 -72.6292 103° East 176 203 7,500  Level Boston Center
08:58AM 42.5942 -72.5697 101° East 176 203 7,500  Level Boston Center
08:59AM 42.5858 -72.5050 100° East 170 196 7,500  Level Boston Center
09:00AM 42.5756 -72.4428 103° East 165 190 7,500  Level Boston Center
09:01AM 42.5672 -72.3808 100° East 165 190 7,500  Level Boston Center
09:02AM 42.5586 -72.3161 100° East 165 190 7,500  Level Boston Center
09:03AM 42.5483 -72.2514 102° East 165 190 7,500  Level Boston Center
09:04AM 42.5378 -72.1836 102° East 165 190 7,500  Level Boston Center
09:05AM 42.5292 -72.1133 99° East 165 190 7,500  Level Boston Center
09:06AM 42.5206 -72.0569 102° East 165 190 7,500  Level Boston Center
09:07AM 42.5100 -71.9894 102° East 165 190 7,500  Level Boston Center
09:08AM 42.5036 -71.9333 99° East 165 190 7,500  Level Boston Center
09:09AM 42.4969 -71.8656 98° East 165 190 7,500  Level Boston Center
09:10AM 42.4967 -71.8067 90° East 165 190 7,500 -180 Level Boston Center
09:11AM 42.4942 -71.7361 93° East 160 184 7,200 -360 Descending Boston Center
09:12AM 42.4917 -71.6742 93° East 172 198 6,800 -480 Descending Boston Center
09:13AM 42.4833 -71.5833 97° East 191 220 6,300 -480 Descending KA90
09:14AM 42.4833 -71.5167 90° East 189 217 5,900 -480 Descending KA90
09:15AM 42.4833 -71.4500 90° East 189 217 5,400 -240 Descending KA90
09:16AM 42.4833 -71.3833 90° East 177 204 5,500 -60 Climbing KA90
09:17AM 42.4833 -71.3167 90° East 172 198 5,300 -420 Descending KA90
09:18AM 42.4833 -71.2500 90° East 185 213 4,800 -420 Descending KA90
09:19AM 42.4500 -71.1833 124° Southeast 173 199 4,500 -240 Descending KA90
09:20AM 42.4333 -71.1500 124° Southeast 168 193 4,400 -660 Descending KA90
09:21AM 42.3833 -71.1500 180° South 177 204 3,400 -1,080 Descending KA90
09:22AM 42.3500 -71.1167 144° Southeast 164 189 2,300 -1,140 Descending KA90
09:23AM 42.3333 -71.0667 114° Southeast 152 175 1,300 -960 Descending KA90
09:24AM 42.3500 -71.0167 66° East 125 144 300 -840 Descending KA90
09:26AM 42.3630 -71.0064 31° Northeast  Level Estimated
09:33AM 42.3630 -71.0064 270° West  Level Estimated